sensor_id;sensor_type;location;lat;lon;timestamp;temperature;humidity
48734;DHT22;34530;52.084;5.146;2022-07-23T00:00:16;23.70;54.20
48734;DHT22;34530;52.084;5.146;2022-07-23T00:02:42;23.80;54.10
48734;DHT22;34530;52.084;5.146;2022-07-23T00:05:08;23.80;54.10
48734;DHT22;34530;52.084;5.146;2022-07-23T00:07:34;23.80;54.00
48734;DHT22;34530;52.084;5.146;2022-07-23T00:09:59;23.80;54.00
48734;DHT22;34530;52.084;5.146;2022-07-23T00:12:25;23.80;54.00
48734;DHT22;34530;52.084;5.146;2022-07-23T00:14:51;23.80;53.90
48734;DHT22;34530;52.084;5.146;2022-07-23T00:17:16;23.90;53.80
48734;DHT22;34530;52.084;5.146;2022-07-23T00:19:42;23.90;53.80
48734;DHT22;34530;52.084;5.146;2022-07-23T00:22:08;23.90;53.80
48734;DHT22;34530;52.084;5.146;2022-07-23T00:24:33;23.90;53.80
48734;DHT22;34530;52.084;5.146;2022-07-23T00:26:59;23.90;53.80
48734;DHT22;34530;52.084;5.146;2022-07-23T00:29:24;24.00;53.70
48734;DHT22;34530;52.084;5.146;2022-07-23T00:31:50;24.00;53.70
48734;DHT22;34530;52.084;5.146;2022-07-23T00:34:16;23.90;53.50
48734;DHT22;34530;52.084;5.146;2022-07-23T00:36:41;23.90;53.60
48734;DHT22;34530;52.084;5.146;2022-07-23T00:39:07;23.90;53.70
48734;DHT22;34530;52.084;5.146;2022-07-23T00:41:32;23.90;53.70
48734;DHT22;34530;52.084;5.146;2022-07-23T00:44:24;23.90;53.80
48734;DHT22;34530;52.084;5.146;2022-07-23T00:46:56;23.90;53.70
48734;DHT22;34530;52.084;5.146;2022-07-23T00:49:27;23.90;53.70
48734;DHT22;34530;52.084;5.146;2022-07-23T00:51:53;23.90;53.70
48734;DHT22;34530;52.084;5.146;2022-07-23T00:54:19;23.90;53.70
48734;DHT22;34530;52.084;5.146;2022-07-23T00:56:47;23.90;54.30
48734;DHT22;34530;52.084;5.146;2022-07-23T00:59:13;23.90;53.70
48734;DHT22;34530;52.084;5.146;2022-07-23T01:01:39;23.80;53.70
48734;DHT22;34530;52.084;5.146;2022-07-23T01:04:05;23.80;53.70
48734;DHT22;34530;52.084;5.146;2022-07-23T01:06:36;23.80;53.70
48734;DHT22;34530;52.084;5.146;2022-07-23T01:09:06;23.80;53.70
48734;DHT22;34530;52.084;5.146;2022-07-23T01:11:34;23.80;53.70
48734;DHT22;34530;52.084;5.146;2022-07-23T01:14:10;23.70;53.70
48734;DHT22;34530;52.084;5.146;2022-07-23T01:16:36;23.70;53.80
48734;DHT22;34530;52.084;5.146;2022-07-23T01:19:02;23.70;54.00
48734;DHT22;34530;52.084;5.146;2022-07-23T01:21:29;23.60;54.00
48734;DHT22;34530;52.084;5.146;2022-07-23T01:23:55;23.60;54.10
48734;DHT22;34530;52.084;5.146;2022-07-23T01:26:21;23.60;54.20
48734;DHT22;34530;52.084;5.146;2022-07-23T01:28:47;23.60;54.30
48734;DHT22;34530;52.084;5.146;2022-07-23T01:31:12;23.50;54.50
48734;DHT22;34530;52.084;5.146;2022-07-23T01:33:38;23.50;54.50
48734;DHT22;34530;52.084;5.146;2022-07-23T01:36:03;23.50;54.50
48734;DHT22;34530;52.084;5.146;2022-07-23T01:38:29;23.40;54.50
48734;DHT22;34530;52.084;5.146;2022-07-23T01:40:55;23.50;54.50
48734;DHT22;34530;52.084;5.146;2022-07-23T01:43:20;23.50;54.50
48734;DHT22;34530;52.084;5.146;2022-07-23T01:45:46;23.50;54.50
48734;DHT22;34530;52.084;5.146;2022-07-23T01:48:11;23.50;54.40
48734;DHT22;34530;52.084;5.146;2022-07-23T01:50:37;23.50;54.50
48734;DHT22;34530;52.084;5.146;2022-07-23T01:53:03;23.50;54.50
48734;DHT22;34530;52.084;5.146;2022-07-23T01:55:28;23.50;54.50
48734;DHT22;34530;52.084;5.146;2022-07-23T01:57:54;23.40;54.50
48734;DHT22;34530;52.084;5.146;2022-07-23T02:00:19;23.40;54.60
48734;DHT22;34530;52.084;5.146;2022-07-23T02:02:45;23.40;54.70
48734;DHT22;34530;52.084;5.146;2022-07-23T02:05:10;23.40;54.70
48734;DHT22;34530;52.084;5.146;2022-07-23T02:07:36;23.40;54.80
48734;DHT22;34530;52.084;5.146;2022-07-23T02:10:02;23.40;54.80
48734;DHT22;34530;52.084;5.146;2022-07-23T02:12:28;23.30;54.90
48734;DHT22;34530;52.084;5.146;2022-07-23T02:14:53;23.40;54.90
48734;DHT22;34530;52.084;5.146;2022-07-23T02:17:19;23.30;54.90
48734;DHT22;34530;52.084;5.146;2022-07-23T02:19:45;23.30;55.60
48734;DHT22;34530;52.084;5.146;2022-07-23T02:22:10;23.30;55.00
48734;DHT22;34530;52.084;5.146;2022-07-23T02:24:36;23.30;55.00
48734;DHT22;34530;52.084;5.146;2022-07-23T02:27:01;23.30;55.00
48734;DHT22;34530;52.084;5.146;2022-07-23T02:29:27;23.30;55.00
48734;DHT22;34530;52.084;5.146;2022-07-23T02:31:53;23.30;55.00
48734;DHT22;34530;52.084;5.146;2022-07-23T02:34:18;23.30;55.00
48734;DHT22;34530;52.084;5.146;2022-07-23T02:36:44;23.30;55.00
48734;DHT22;34530;52.084;5.146;2022-07-23T02:39:10;23.30;55.00
48734;DHT22;34530;52.084;5.146;2022-07-23T02:41:35;23.30;55.00
48734;DHT22;34530;52.084;5.146;2022-07-23T02:44:01;23.30;55.00
48734;DHT22;34530;52.084;5.146;2022-07-23T02:46:27;23.30;55.00
48734;DHT22;34530;52.084;5.146;2022-07-23T02:48:52;23.30;55.00
48734;DHT22;34530;52.084;5.146;2022-07-23T02:51:18;23.20;55.10
48734;DHT22;34530;52.084;5.146;2022-07-23T02:53:43;23.20;55.10
48734;DHT22;34530;52.084;5.146;2022-07-23T02:56:09;23.20;55.10
48734;DHT22;34530;52.084;5.146;2022-07-23T02:58:35;23.20;55.10
48734;DHT22;34530;52.084;5.146;2022-07-23T03:01:00;23.20;55.10
48734;DHT22;34530;52.084;5.146;2022-07-23T03:03:26;23.20;55.10
48734;DHT22;34530;52.084;5.146;2022-07-23T03:05:52;23.20;55.10
48734;DHT22;34530;52.084;5.146;2022-07-23T03:08:17;23.20;55.20
48734;DHT22;34530;52.084;5.146;2022-07-23T03:10:43;23.20;55.20
48734;DHT22;34530;52.084;5.146;2022-07-23T03:13:08;23.20;55.20
48734;DHT22;34530;52.084;5.146;2022-07-23T03:15:34;23.10;55.10
48734;DHT22;34530;52.084;5.146;2022-07-23T03:18:00;23.10;55.20
48734;DHT22;34530;52.084;5.146;2022-07-23T03:20:25;23.10;55.20
48734;DHT22;34530;52.084;5.146;2022-07-23T03:22:51;23.10;55.30
48734;DHT22;34530;52.084;5.146;2022-07-23T03:25:16;23.10;55.40
48734;DHT22;34530;52.084;5.146;2022-07-23T03:27:42;23.10;55.40
48734;DHT22;34530;52.084;5.146;2022-07-23T03:30:08;23.10;55.50
48734;DHT22;34530;52.084;5.146;2022-07-23T03:32:33;23.00;55.40
48734;DHT22;34530;52.084;5.146;2022-07-23T03:34:59;23.00;55.50
48734;DHT22;34530;52.084;5.146;2022-07-23T03:37:25;23.00;55.40
48734;DHT22;34530;52.084;5.146;2022-07-23T03:39:50;23.00;55.50
48734;DHT22;34530;52.084;5.146;2022-07-23T03:42:16;23.00;55.50
48734;DHT22;34530;52.084;5.146;2022-07-23T03:44:41;23.00;55.50
48734;DHT22;34530;52.084;5.146;2022-07-23T03:47:07;23.00;55.50
48734;DHT22;34530;52.084;5.146;2022-07-23T03:49:33;23.00;55.70
48734;DHT22;34530;52.084;5.146;2022-07-23T03:51:59;22.90;55.70
48734;DHT22;34530;52.084;5.146;2022-07-23T03:54:24;22.90;55.70
48734;DHT22;34530;52.084;5.146;2022-07-23T03:56:50;22.90;55.80
48734;DHT22;34530;52.084;5.146;2022-07-23T03:59:16;22.90;55.90
48734;DHT22;34530;52.084;5.146;2022-07-23T04:01:42;22.80;56.00
48734;DHT22;34530;52.084;5.146;2022-07-23T04:04:07;22.80;56.00
48734;DHT22;34530;52.084;5.146;2022-07-23T04:06:34;22.80;56.00
48734;DHT22;34530;52.084;5.146;2022-07-23T04:09:00;22.80;56.00
48734;DHT22;34530;52.084;5.146;2022-07-23T04:11:25;22.70;56.10
48734;DHT22;34530;52.084;5.146;2022-07-23T04:13:51;22.70;56.10
48734;DHT22;34530;52.084;5.146;2022-07-23T04:16:17;22.70;56.10
48734;DHT22;34530;52.084;5.146;2022-07-23T04:18:42;22.80;56.10
48734;DHT22;34530;52.084;5.146;2022-07-23T04:21:08;22.70;56.10
48734;DHT22;34530;52.084;5.146;2022-07-23T04:23:33;22.70;56.10
48734;DHT22;34530;52.084;5.146;2022-07-23T04:25:59;22.70;56.10
48734;DHT22;34530;52.084;5.146;2022-07-23T04:28:25;22.70;56.20
48734;DHT22;34530;52.084;5.146;2022-07-23T04:30:50;22.70;56.20
48734;DHT22;34530;52.084;5.146;2022-07-23T04:33:16;22.70;56.20
48734;DHT22;34530;52.084;5.146;2022-07-23T04:35:42;22.70;56.20
48734;DHT22;34530;52.084;5.146;2022-07-23T04:38:07;22.70;56.30
48734;DHT22;34530;52.084;5.146;2022-07-23T04:40:33;22.70;56.30
48734;DHT22;34530;52.084;5.146;2022-07-23T04:42:58;22.70;56.40
48734;DHT22;34530;52.084;5.146;2022-07-23T04:45:24;22.70;56.30
48734;DHT22;34530;52.084;5.146;2022-07-23T04:47:50;22.70;56.30
48734;DHT22;34530;52.084;5.146;2022-07-23T04:50:16;22.70;56.30
48734;DHT22;34530;52.084;5.146;2022-07-23T04:52:47;22.80;56.20
48734;DHT22;34530;52.084;5.146;2022-07-23T04:55:14;22.80;56.20
48734;DHT22;34530;52.084;5.146;2022-07-23T04:57:39;22.80;56.10
48734;DHT22;34530;52.084;5.146;2022-07-23T05:00:05;22.80;56.10
48734;DHT22;34530;52.084;5.146;2022-07-23T05:02:31;22.80;56.00
48734;DHT22;34530;52.084;5.146;2022-07-23T05:04:56;22.80;56.00
48734;DHT22;34530;52.084;5.146;2022-07-23T05:07:22;22.80;56.00
48734;DHT22;34530;52.084;5.146;2022-07-23T05:09:47;22.80;56.10
48734;DHT22;34530;52.084;5.146;2022-07-23T05:12:13;22.80;56.00
48734;DHT22;34530;52.084;5.146;2022-07-23T05:14:38;22.80;56.00
48734;DHT22;34530;52.084;5.146;2022-07-23T05:17:04;22.80;56.60
48734;DHT22;34530;52.084;5.146;2022-07-23T05:19:30;22.80;55.90
48734;DHT22;34530;52.084;5.146;2022-07-23T05:21:55;22.80;55.80
48734;DHT22;34530;52.084;5.146;2022-07-23T05:24:21;22.80;55.60
48734;DHT22;34530;52.084;5.146;2022-07-23T05:26:47;22.80;55.60
48734;DHT22;34530;52.084;5.146;2022-07-23T05:29:12;22.80;55.60
48734;DHT22;34530;52.084;5.146;2022-07-23T05:31:38;22.80;55.40
48734;DHT22;34530;52.084;5.146;2022-07-23T05:34:03;22.80;55.50
48734;DHT22;34530;52.084;5.146;2022-07-23T05:36:31;22.80;55.40
48734;DHT22;34530;52.084;5.146;2022-07-23T05:38:57;22.80;55.40
48734;DHT22;34530;52.084;5.146;2022-07-23T05:41:22;22.80;55.40
48734;DHT22;34530;52.084;5.146;2022-07-23T05:43:48;22.80;55.50
48734;DHT22;34530;52.084;5.146;2022-07-23T05:46:13;22.80;55.40
48734;DHT22;34530;52.084;5.146;2022-07-23T05:48:39;22.80;55.40
48734;DHT22;34530;52.084;5.146;2022-07-23T05:51:05;22.80;55.40
48734;DHT22;34530;52.084;5.146;2022-07-23T05:53:32;22.90;55.40
48734;DHT22;34530;52.084;5.146;2022-07-23T05:55:58;22.90;55.20
48734;DHT22;34530;52.084;5.146;2022-07-23T05:58:23;22.90;55.20
48734;DHT22;34530;52.084;5.146;2022-07-23T06:00:49;22.90;55.10
48734;DHT22;34530;52.084;5.146;2022-07-23T06:03:15;22.90;55.00
48734;DHT22;34530;52.084;5.146;2022-07-23T06:05:40;22.90;55.00
48734;DHT22;34530;52.084;5.146;2022-07-23T06:08:06;22.90;55.00
48734;DHT22;34530;52.084;5.146;2022-07-23T06:10:31;23.00;54.80
48734;DHT22;34530;52.084;5.146;2022-07-23T06:12:57;23.00;54.50
48734;DHT22;34530;52.084;5.146;2022-07-23T06:15:22;23.00;54.30
48734;DHT22;34530;52.084;5.146;2022-07-23T06:17:48;23.00;54.40
48734;DHT22;34530;52.084;5.146;2022-07-23T06:20:14;23.00;54.50
48734;DHT22;34530;52.084;5.146;2022-07-23T06:22:39;23.00;54.30
48734;DHT22;34530;52.084;5.146;2022-07-23T06:25:06;23.00;54.00
48734;DHT22;34530;52.084;5.146;2022-07-23T06:27:31;23.00;54.10
48734;DHT22;34530;52.084;5.146;2022-07-23T06:29:57;23.00;54.00
48734;DHT22;34530;52.084;5.146;2022-07-23T06:32:23;23.00;54.10
48734;DHT22;34530;52.084;5.146;2022-07-23T06:34:48;22.90;53.90
48734;DHT22;34530;52.084;5.146;2022-07-23T06:37:14;22.90;54.10
48734;DHT22;34530;52.084;5.146;2022-07-23T06:39:39;23.00;54.00
48734;DHT22;34530;52.084;5.146;2022-07-23T06:42:05;23.00;54.00
48734;DHT22;34530;52.084;5.146;2022-07-23T06:44:31;22.90;54.10
48734;DHT22;34530;52.084;5.146;2022-07-23T06:46:56;22.90;54.20
48734;DHT22;34530;52.084;5.146;2022-07-23T06:49:22;23.00;54.10
48734;DHT22;34530;52.084;5.146;2022-07-23T06:51:48;23.00;54.10
48734;DHT22;34530;52.084;5.146;2022-07-23T06:54:13;23.00;53.80
48734;DHT22;34530;52.084;5.146;2022-07-23T06:56:39;23.00;53.70
48734;DHT22;34530;52.084;5.146;2022-07-23T06:59:04;23.10;53.70
48734;DHT22;34530;52.084;5.146;2022-07-23T07:01:30;23.00;53.70
48734;DHT22;34530;52.084;5.146;2022-07-23T07:03:56;23.10;53.80
48734;DHT22;34530;52.084;5.146;2022-07-23T07:06:21;23.10;53.50
48734;DHT22;34530;52.084;5.146;2022-07-23T07:08:47;23.10;53.20
48734;DHT22;34530;52.084;5.146;2022-07-23T07:11:13;23.10;53.30
48734;DHT22;34530;52.084;5.146;2022-07-23T07:13:41;23.00;53.40
48734;DHT22;34530;52.084;5.146;2022-07-23T07:16:07;23.00;53.30
48734;DHT22;34530;52.084;5.146;2022-07-23T07:18:33;23.00;53.40
48734;DHT22;34530;52.084;5.146;2022-07-23T07:20:58;23.00;53.60
48734;DHT22;34530;52.084;5.146;2022-07-23T07:23:24;23.10;53.80
48734;DHT22;34530;52.084;5.146;2022-07-23T07:25:49;23.10;53.50
48734;DHT22;34530;52.084;5.146;2022-07-23T07:28:15;23.20;53.30
48734;DHT22;34530;52.084;5.146;2022-07-23T07:30:41;23.10;53.20
48734;DHT22;34530;52.084;5.146;2022-07-23T07:33:07;23.20;53.40
48734;DHT22;34530;52.084;5.146;2022-07-23T07:35:32;23.20;53.10
48734;DHT22;34530;52.084;5.146;2022-07-23T07:37:59;23.20;53.00
48734;DHT22;34530;52.084;5.146;2022-07-23T07:40:25;23.10;53.00
48734;DHT22;34530;52.084;5.146;2022-07-23T07:42:53;23.20;52.90
48734;DHT22;34530;52.084;5.146;2022-07-23T07:45:22;23.20;52.90
48734;DHT22;34530;52.084;5.146;2022-07-23T07:47:49;23.10;52.80
48734;DHT22;34530;52.084;5.146;2022-07-23T07:50:15;23.10;53.00
48734;DHT22;34530;52.084;5.146;2022-07-23T07:52:41;23.10;53.00
48734;DHT22;34530;52.084;5.146;2022-07-23T07:55:08;23.10;53.20
48734;DHT22;34530;52.084;5.146;2022-07-23T07:57:34;23.10;53.10
48734;DHT22;34530;52.084;5.146;2022-07-23T07:59:59;23.10;53.20
48734;DHT22;34530;52.084;5.146;2022-07-23T08:02:25;23.10;53.20
48734;DHT22;34530;52.084;5.146;2022-07-23T08:04:51;23.20;53.00
48734;DHT22;34530;52.084;5.146;2022-07-23T08:07:17;23.20;53.00
48734;DHT22;34530;52.084;5.146;2022-07-23T08:09:42;23.20;53.70
48734;DHT22;34530;52.084;5.146;2022-07-23T08:12:08;23.20;52.70
48734;DHT22;34530;52.084;5.146;2022-07-23T08:14:34;23.20;52.40
48734;DHT22;34530;52.084;5.146;2022-07-23T08:17:00;23.20;52.50
48734;DHT22;34530;52.084;5.146;2022-07-23T08:19:25;23.20;52.70
48734;DHT22;34530;52.084;5.146;2022-07-23T08:21:51;23.20;52.70
48734;DHT22;34530;52.084;5.146;2022-07-23T08:24:17;23.20;52.90
48734;DHT22;34530;52.084;5.146;2022-07-23T08:26:42;23.20;52.90
48734;DHT22;34530;52.084;5.146;2022-07-23T08:29:08;23.30;52.80
48734;DHT22;34530;52.084;5.146;2022-07-23T08:31:33;23.30;52.60
48734;DHT22;34530;52.084;5.146;2022-07-23T08:34:00;23.30;52.80
48734;DHT22;34530;52.084;5.146;2022-07-23T08:36:25;23.30;52.60
48734;DHT22;34530;52.084;5.146;2022-07-23T08:38:53;23.30;52.70
48734;DHT22;34530;52.084;5.146;2022-07-23T08:41:19;23.30;52.50
48734;DHT22;34530;52.084;5.146;2022-07-23T08:43:45;23.30;52.60
48734;DHT22;34530;52.084;5.146;2022-07-23T08:46:13;23.30;52.60
48734;DHT22;34530;52.084;5.146;2022-07-23T08:48:39;23.30;52.30
48734;DHT22;34530;52.084;5.146;2022-07-23T08:51:06;23.30;52.30
48734;DHT22;34530;52.084;5.146;2022-07-23T08:53:33;23.30;52.40
48734;DHT22;34530;52.084;5.146;2022-07-23T08:56:02;23.30;52.30
48734;DHT22;34530;52.084;5.146;2022-07-23T08:58:29;23.40;52.40
48734;DHT22;34530;52.084;5.146;2022-07-23T09:00:55;23.40;52.30
48734;DHT22;34530;52.084;5.146;2022-07-23T09:03:30;23.40;51.90
48734;DHT22;34530;52.084;5.146;2022-07-23T09:05:57;23.50;52.00
48734;DHT22;34530;52.084;5.146;2022-07-23T09:08:44;23.50;52.00
48734;DHT22;34530;52.084;5.146;2022-07-23T09:11:15;23.60;52.00
48734;DHT22;34530;52.084;5.146;2022-07-23T09:13:52;23.50;52.00
48734;DHT22;34530;52.084;5.146;2022-07-23T09:16:29;23.60;51.80
48734;DHT22;34530;52.084;5.146;2022-07-23T09:18:59;23.60;51.60
48734;DHT22;34530;52.084;5.146;2022-07-23T09:21:44;23.60;51.30
48734;DHT22;34530;52.084;5.146;2022-07-23T09:24:12;23.70;51.10
48734;DHT22;34530;52.084;5.146;2022-07-23T09:29:15;23.70;51.20
48734;DHT22;34530;52.084;5.146;2022-07-23T09:31:57;23.70;51.80
48734;DHT22;34530;52.084;5.146;2022-07-23T09:34:30;23.80;51.20
48734;DHT22;34530;52.084;5.146;2022-07-23T09:37:09;23.80;51.40
48734;DHT22;34530;52.084;5.146;2022-07-23T09:39:34;23.80;51.40
48734;DHT22;34530;52.084;5.146;2022-07-23T09:42:23;23.80;51.30
48734;DHT22;34530;52.084;5.146;2022-07-23T09:44:52;23.90;51.10
48734;DHT22;34530;52.084;5.146;2022-07-23T09:47:18;23.90;51.00
48734;DHT22;34530;52.084;5.146;2022-07-23T09:50:07;23.90;51.00
48734;DHT22;34530;52.084;5.146;2022-07-23T09:52:45;24.00;51.00
48734;DHT22;34530;52.084;5.146;2022-07-23T09:55:15;24.00;51.00
48734;DHT22;34530;52.084;5.146;2022-07-23T09:57:42;24.00;51.00
48734;DHT22;34530;52.084;5.146;2022-07-23T10:00:13;24.00;50.60
48734;DHT22;34530;52.084;5.146;2022-07-23T10:02:39;24.10;50.70
48734;DHT22;34530;52.084;5.146;2022-07-23T10:05:06;24.10;50.60
48734;DHT22;34530;52.084;5.146;2022-07-23T10:07:33;24.10;50.60
48734;DHT22;34530;52.084;5.146;2022-07-23T10:10:00;24.10;50.50
48734;DHT22;34530;52.084;5.146;2022-07-23T10:12:26;24.20;50.60
48734;DHT22;34530;52.084;5.146;2022-07-23T10:14:52;24.20;50.50
48734;DHT22;34530;52.084;5.146;2022-07-23T10:17:18;24.20;50.50
48734;DHT22;34530;52.084;5.146;2022-07-23T10:19:44;24.20;50.30
48734;DHT22;34530;52.084;5.146;2022-07-23T10:22:18;24.20;50.00
48734;DHT22;34530;52.084;5.146;2022-07-23T10:30:18;24.30;49.70
48734;DHT22;34530;52.084;5.146;2022-07-23T10:38:20;24.30;50.30
48734;DHT22;34530;52.084;5.146;2022-07-23T10:41:02;24.30;50.10
48734;DHT22;34530;52.084;5.146;2022-07-23T10:43:29;24.30;49.50
48734;DHT22;34530;52.084;5.146;2022-07-23T10:45:55;24.30;49.70
48734;DHT22;34530;52.084;5.146;2022-07-23T10:48:24;24.30;49.90
48734;DHT22;34530;52.084;5.146;2022-07-23T10:51:13;24.30;49.50
48734;DHT22;34530;52.084;5.146;2022-07-23T10:59:03;24.30;49.20
48734;DHT22;34530;52.084;5.146;2022-07-23T11:01:37;24.40;49.10
48734;DHT22;34530;52.084;5.146;2022-07-23T11:04:04;24.40;49.30
48734;DHT22;34530;52.084;5.146;2022-07-23T11:09:41;24.40;48.50
48734;DHT22;34530;52.084;5.146;2022-07-23T11:17:30;24.50;48.50
48734;DHT22;34530;52.084;5.146;2022-07-23T11:22:54;24.50;48.40
48734;DHT22;34530;52.084;5.146;2022-07-23T11:28:14;24.50;48.30
48734;DHT22;34530;52.084;5.146;2022-07-23T11:30:43;24.50;48.30
48734;DHT22;34530;52.084;5.146;2022-07-23T11:35:49;24.50;48.50
48734;DHT22;34530;52.084;5.146;2022-07-23T11:38:22;24.60;48.60
48734;DHT22;34530;52.084;5.146;2022-07-23T11:40:50;24.60;48.70
48734;DHT22;34530;52.084;5.146;2022-07-23T11:43:17;24.60;48.80
48734;DHT22;34530;52.084;5.146;2022-07-23T11:45:48;24.60;48.70
48734;DHT22;34530;52.084;5.146;2022-07-23T11:48:18;24.60;48.50
48734;DHT22;34530;52.084;5.146;2022-07-23T11:50:45;24.70;48.40
48734;DHT22;34530;52.084;5.146;2022-07-23T11:53:11;24.70;48.60
48734;DHT22;34530;52.084;5.146;2022-07-23T11:55:36;24.70;48.50
48734;DHT22;34530;52.084;5.146;2022-07-23T11:58:02;24.70;48.40
48734;DHT22;34530;52.084;5.146;2022-07-23T12:00:29;24.70;48.40
48734;DHT22;34530;52.084;5.146;2022-07-23T12:02:58;24.70;48.30
48734;DHT22;34530;52.084;5.146;2022-07-23T12:05:31;24.80;48.40
48734;DHT22;34530;52.084;5.146;2022-07-23T12:07:58;24.80;48.50
48734;DHT22;34530;52.084;5.146;2022-07-23T12:10:29;24.80;48.40
48734;DHT22;34530;52.084;5.146;2022-07-23T12:13:01;24.80;48.50
48734;DHT22;34530;52.084;5.146;2022-07-23T12:15:33;24.80;48.50
48734;DHT22;34530;52.084;5.146;2022-07-23T12:18:02;24.90;48.60
48734;DHT22;34530;52.084;5.146;2022-07-23T12:20:31;24.90;48.40
48734;DHT22;34530;52.084;5.146;2022-07-23T12:22:59;24.90;48.40
48734;DHT22;34530;52.084;5.146;2022-07-23T12:25:30;24.90;48.50
48734;DHT22;34530;52.084;5.146;2022-07-23T12:28:02;24.90;48.60
48734;DHT22;34530;52.084;5.146;2022-07-23T12:30:37;24.90;48.70
48734;DHT22;34530;52.084;5.146;2022-07-23T12:33:04;24.90;48.80
48734;DHT22;34530;52.084;5.146;2022-07-23T12:35:39;24.90;48.80
48734;DHT22;34530;52.084;5.146;2022-07-23T12:38:12;24.90;48.90
48734;DHT22;34530;52.084;5.146;2022-07-23T12:40:43;24.90;49.00
48734;DHT22;34530;52.084;5.146;2022-07-23T12:43:21;25.00;48.80
48734;DHT22;34530;52.084;5.146;2022-07-23T12:46:07;25.00;48.80
48734;DHT22;34530;52.084;5.146;2022-07-23T12:48:53;25.00;48.80
48734;DHT22;34530;52.084;5.146;2022-07-23T12:51:25;25.00;48.70
48734;DHT22;34530;52.084;5.146;2022-07-23T12:53:54;25.10;48.80
48734;DHT22;34530;52.084;5.146;2022-07-23T12:56:30;25.10;48.70
48734;DHT22;34530;52.084;5.146;2022-07-23T12:58:56;25.10;48.90
48734;DHT22;34530;52.084;5.146;2022-07-23T13:04:00;25.10;49.00
48734;DHT22;34530;52.084;5.146;2022-07-23T13:06:31;25.10;48.90
48734;DHT22;34530;52.084;5.146;2022-07-23T13:08:57;25.10;48.80
48734;DHT22;34530;52.084;5.146;2022-07-23T13:11:23;25.20;48.80
48734;DHT22;34530;52.084;5.146;2022-07-23T13:13:49;25.20;48.70
48734;DHT22;34530;52.084;5.146;2022-07-23T13:16:15;25.20;48.40
48734;DHT22;34530;52.084;5.146;2022-07-23T13:18:40;25.20;48.20
48734;DHT22;34530;52.084;5.146;2022-07-23T13:21:06;25.20;48.10
48734;DHT22;34530;52.084;5.146;2022-07-23T13:23:32;25.30;48.10
48734;DHT22;34530;52.084;5.146;2022-07-23T13:25:58;25.30;48.00
48734;DHT22;34530;52.084;5.146;2022-07-23T13:28:23;25.30;48.00
48734;DHT22;34530;52.084;5.146;2022-07-23T13:30:50;25.30;48.00
48734;DHT22;34530;52.084;5.146;2022-07-23T13:33:21;25.30;48.10
48734;DHT22;34530;52.084;5.146;2022-07-23T13:35:48;25.40;48.20
48734;DHT22;34530;52.084;5.146;2022-07-23T13:38:14;25.40;48.30
48734;DHT22;34530;52.084;5.146;2022-07-23T13:40:42;25.40;48.40
48734;DHT22;34530;52.084;5.146;2022-07-23T13:43:10;25.40;48.40
48734;DHT22;34530;52.084;5.146;2022-07-23T13:45:36;25.40;48.40
48734;DHT22;34530;52.084;5.146;2022-07-23T13:48:03;25.40;48.10
48734;DHT22;34530;52.084;5.146;2022-07-23T13:50:29;25.40;47.90
48734;DHT22;34530;52.084;5.146;2022-07-23T13:52:55;25.50;47.90
48734;DHT22;34530;52.084;5.146;2022-07-23T13:55:21;25.50;48.00
48734;DHT22;34530;52.084;5.146;2022-07-23T13:57:46;25.50;48.00
48734;DHT22;34530;52.084;5.146;2022-07-23T14:00:13;25.60;48.10
48734;DHT22;34530;52.084;5.146;2022-07-23T14:02:40;25.60;47.60
48734;DHT22;34530;52.084;5.146;2022-07-23T14:05:08;25.60;47.60
48734;DHT22;34530;52.084;5.146;2022-07-23T14:07:34;25.60;48.20
48734;DHT22;34530;52.084;5.146;2022-07-23T14:10:00;25.60;48.60
48734;DHT22;34530;52.084;5.146;2022-07-23T14:12:26;25.60;48.90
48734;DHT22;34530;52.084;5.146;2022-07-23T14:14:52;25.60;49.10
48734;DHT22;34530;52.084;5.146;2022-07-23T14:17:18;25.60;48.90
48734;DHT22;34530;52.084;5.146;2022-07-23T14:19:44;25.60;48.70
48734;DHT22;34530;52.084;5.146;2022-07-23T14:22:09;25.60;48.90
48734;DHT22;34530;52.084;5.146;2022-07-23T14:24:35;25.60;49.10
48734;DHT22;34530;52.084;5.146;2022-07-23T14:27:02;25.60;49.60
48734;DHT22;34530;52.084;5.146;2022-07-23T14:29:28;25.70;49.20
48734;DHT22;34530;52.084;5.146;2022-07-23T14:31:54;25.60;48.90
48734;DHT22;34530;52.084;5.146;2022-07-23T14:34:19;25.70;49.20
48734;DHT22;34530;52.084;5.146;2022-07-23T14:36:45;25.70;48.60
48734;DHT22;34530;52.084;5.146;2022-07-23T14:39:11;25.70;48.40
48734;DHT22;34530;52.084;5.146;2022-07-23T14:41:37;25.70;48.90
48734;DHT22;34530;52.084;5.146;2022-07-23T14:44:04;25.70;49.10
48734;DHT22;34530;52.084;5.146;2022-07-23T14:46:30;25.80;48.50
48734;DHT22;34530;52.084;5.146;2022-07-23T14:48:55;25.80;48.40
48734;DHT22;34530;52.084;5.146;2022-07-23T14:51:21;25.80;48.90
48734;DHT22;34530;52.084;5.146;2022-07-23T14:53:47;25.80;49.10
48734;DHT22;34530;52.084;5.146;2022-07-23T14:56:12;25.80;49.80
48734;DHT22;34530;52.084;5.146;2022-07-23T14:58:39;25.80;49.60
48734;DHT22;34530;52.084;5.146;2022-07-23T15:01:05;25.80;49.50
48734;DHT22;34530;52.084;5.146;2022-07-23T15:03:31;25.80;49.90
48734;DHT22;34530;52.084;5.146;2022-07-23T15:05:56;25.80;50.20
48734;DHT22;34530;52.084;5.146;2022-07-23T15:08:22;25.80;50.80
48734;DHT22;34530;52.084;5.146;2022-07-23T15:10:48;25.80;50.80
48734;DHT22;34530;52.084;5.146;2022-07-23T15:13:13;25.80;50.10
48734;DHT22;34530;52.084;5.146;2022-07-23T15:15:39;25.80;50.70
48734;DHT22;34530;52.084;5.146;2022-07-23T15:18:05;25.80;51.10
48734;DHT22;34530;52.084;5.146;2022-07-23T15:20:30;25.80;51.30
48734;DHT22;34530;52.084;5.146;2022-07-23T15:22:56;25.90;51.60
48734;DHT22;34530;52.084;5.146;2022-07-23T15:25:23;25.90;50.60
48734;DHT22;34530;52.084;5.146;2022-07-23T15:27:48;25.90;50.70
48734;DHT22;34530;52.084;5.146;2022-07-23T15:30:14;25.80;51.00
48734;DHT22;34530;52.084;5.146;2022-07-23T15:32:39;25.90;50.50
48734;DHT22;34530;52.084;5.146;2022-07-23T15:35:05;25.90;50.40
48734;DHT22;34530;52.084;5.146;2022-07-23T15:37:33;25.90;51.20
48734;DHT22;34530;52.084;5.146;2022-07-23T15:39:59;25.90;51.00
48734;DHT22;34530;52.084;5.146;2022-07-23T15:42:25;25.90;50.00
48734;DHT22;34530;52.084;5.146;2022-07-23T15:44:51;26.00;49.80
48734;DHT22;34530;52.084;5.146;2022-07-23T15:47:18;26.00;50.30
48734;DHT22;34530;52.084;5.146;2022-07-23T15:49:46;26.00;50.90
48734;DHT22;34530;52.084;5.146;2022-07-23T15:52:12;26.00;51.00
48734;DHT22;34530;52.084;5.146;2022-07-23T15:54:38;26.00;50.80
48734;DHT22;34530;52.084;5.146;2022-07-23T15:57:04;26.00;50.80
48734;DHT22;34530;52.084;5.146;2022-07-23T15:59:31;26.00;50.60
48734;DHT22;34530;52.084;5.146;2022-07-23T16:01:57;26.00;50.80
48734;DHT22;34530;52.084;5.146;2022-07-23T16:04:22;26.00;50.20
48734;DHT22;34530;52.084;5.146;2022-07-23T16:06:48;26.00;50.30